Nemaha, Iowa
Current Conditions -  °F | °C
As of 6:15 AM on Sunday 21 Dec 2014 (Local Time) from KSLB Reporting Station
Moderate Fog Moderate Fog  
Wind Chill: 27°   Ceiling: 200
Heat Index: 36°   Visibility: 0.25mi
Dew Point: 36°   Wind: 14mph
Humidity: 100%   Direction: 190°S
Pressure: 29.87"   Gusts: NA
Location:  42.52°N, 95.09°W
Report Text: KSLB 211215Z AUTO 19012KT 1/4SM FG OVC002 02/02 A2987 RMK AO2
Loading
Personal Weather Stations






























Interactive Weather Map New forecast layout! Learn more

10-Day Weather Forecast

Advertisements
Track Severe Weather on mobile